sensor_id;sensor_type;location;lat;lon;timestamp;temperature;humidity
152;DHT22;68;48.792;9.164;2023-12-28T00:00:07;6.80;72.10
152;DHT22;68;48.792;9.164;2023-12-28T00:02:34;6.90;71.60
152;DHT22;68;48.792;9.164;2023-12-28T00:05:01;7.00;72.50
152;DHT22;68;48.792;9.164;2023-12-28T00:07:28;6.90;72.30
152;DHT22;68;48.792;9.164;2023-12-28T00:09:54;7.00;72.10
152;DHT22;68;48.792;9.164;2023-12-28T00:12:21;7.10;72.00
152;DHT22;68;48.792;9.164;2023-12-28T00:14:48;7.10;70.50
152;DHT22;68;48.792;9.164;2023-12-28T00:17:16;7.20;69.50
152;DHT22;68;48.792;9.164;2023-12-28T00:19:43;7.40;68.90
152;DHT22;68;48.792;9.164;2023-12-28T00:22:10;7.50;69.00
152;DHT22;68;48.792;9.164;2023-12-28T00:24:37;7.50;68.10
152;DHT22;68;48.792;9.164;2023-12-28T00:27:04;7.60;68.20
152;DHT22;68;48.792;9.164;2023-12-28T00:29:30;7.60;68.10
152;DHT22;68;48.792;9.164;2023-12-28T00:31:57;7.70;67.70
152;DHT22;68;48.792;9.164;2023-12-28T00:34:26;7.70;67.70
152;DHT22;68;48.792;9.164;2023-12-28T00:36:53;7.60;67.80
152;DHT22;68;48.792;9.164;2023-12-28T00:39:20;7.60;68.00
152;DHT22;68;48.792;9.164;2023-12-28T00:41:46;7.70;68.60
152;DHT22;68;48.792;9.164;2023-12-28T00:44:13;7.50;68.40
152;DHT22;68;48.792;9.164;2023-12-28T00:46:40;7.60;68.70
152;DHT22;68;48.792;9.164;2023-12-28T00:49:07;7.60;68.20
152;DHT22;68;48.792;9.164;2023-12-28T00:51:35;7.50;68.90
152;DHT22;68;48.792;9.164;2023-12-28T00:54:02;7.40;68.70
152;DHT22;68;48.792;9.164;2023-12-28T00:56:29;7.30;69.00
152;DHT22;68;48.792;9.164;2023-12-28T00:58:55;7.30;69.80
152;DHT22;68;48.792;9.164;2023-12-28T01:01:22;7.20;70.30
152;DHT22;68;48.792;9.164;2023-12-28T01:03:49;7.20;71.30
152;DHT22;68;48.792;9.164;2023-12-28T01:06:16;7.10;71.30
152;DHT22;68;48.792;9.164;2023-12-28T01:08:44;7.00;71.10
152;DHT22;68;48.792;9.164;2023-12-28T01:11:10;6.90;71.70
152;DHT22;68;48.792;9.164;2023-12-28T01:13:37;7.10;70.00
152;DHT22;68;48.792;9.164;2023-12-28T01:16:05;7.10;70.20
152;DHT22;68;48.792;9.164;2023-12-28T01:18:32;7.20;69.00
152;DHT22;68;48.792;9.164;2023-12-28T01:20:59;7.30;69.00
152;DHT22;68;48.792;9.164;2023-12-28T01:23:25;7.30;69.50
152;DHT22;68;48.792;9.164;2023-12-28T01:25:55;7.20;71.40
152;DHT22;68;48.792;9.164;2023-12-28T01:28:21;7.00;72.30
152;DHT22;68;48.792;9.164;2023-12-28T01:30:48;6.80;72.20
152;DHT22;68;48.792;9.164;2023-12-28T01:33:15;6.90;72.20
152;DHT22;68;48.792;9.164;2023-12-28T01:35:42;7.20;73.30
152;DHT22;68;48.792;9.164;2023-12-28T01:38:09;7.00;71.80
152;DHT22;68;48.792;9.164;2023-12-28T01:40:35;6.80;72.60
152;DHT22;68;48.792;9.164;2023-12-28T01:43:03;6.70;73.80
152;DHT22;68;48.792;9.164;2023-12-28T01:45:30;6.70;74.40
152;DHT22;68;48.792;9.164;2023-12-28T01:47:58;6.90;73.70
152;DHT22;68;48.792;9.164;2023-12-28T01:50:26;7.00;73.90
152;DHT22;68;48.792;9.164;2023-12-28T01:52:54;6.90;74.00
152;DHT22;68;48.792;9.164;2023-12-28T01:55:23;6.70;74.60
152;DHT22;68;48.792;9.164;2023-12-28T01:57:50;6.70;73.80
152;DHT22;68;48.792;9.164;2023-12-28T02:00:19;6.80;73.00
152;DHT22;68;48.792;9.164;2023-12-28T02:02:47;6.70;72.80
152;DHT22;68;48.792;9.164;2023-12-28T02:05:14;6.70;72.00
152;DHT22;68;48.792;9.164;2023-12-28T02:07:41;6.80;72.00
152;DHT22;68;48.792;9.164;2023-12-28T02:10:08;6.80;71.50
152;DHT22;68;48.792;9.164;2023-12-28T02:12:35;6.90;71.50
152;DHT22;68;48.792;9.164;2023-12-28T02:15:02;6.90;71.50
152;DHT22;68;48.792;9.164;2023-12-28T02:17:35;6.90;72.20
152;DHT22;68;48.792;9.164;2023-12-28T02:20:03;6.90;72.50
152;DHT22;68;48.792;9.164;2023-12-28T02:22:32;6.80;72.40
152;DHT22;68;48.792;9.164;2023-12-28T02:25:04;6.70;72.90
152;DHT22;68;48.792;9.164;2023-12-28T02:27:32;6.90;74.40
152;DHT22;68;48.792;9.164;2023-12-28T02:29:58;6.80;73.30
152;DHT22;68;48.792;9.164;2023-12-28T02:32:35;6.60;74.10
152;DHT22;68;48.792;9.164;2023-12-28T02:35:11;6.40;74.10
152;DHT22;68;48.792;9.164;2023-12-28T02:37:41;6.40;73.80
152;DHT22;68;48.792;9.164;2023-12-28T02:40:11;6.40;74.00
152;DHT22;68;48.792;9.164;2023-12-28T02:42:39;6.40;75.20
152;DHT22;68;48.792;9.164;2023-12-28T02:45:06;6.40;73.90
152;DHT22;68;48.792;9.164;2023-12-28T02:47:33;6.50;73.90
152;DHT22;68;48.792;9.164;2023-12-28T02:50:00;6.40;74.80
152;DHT22;68;48.792;9.164;2023-12-28T02:52:27;6.40;74.60
152;DHT22;68;48.792;9.164;2023-12-28T02:54:53;6.60;74.30
152;DHT22;68;48.792;9.164;2023-12-28T02:57:21;6.50;76.00
152;DHT22;68;48.792;9.164;2023-12-28T02:59:48;6.50;74.40
152;DHT22;68;48.792;9.164;2023-12-28T03:02:15;6.40;74.10
152;DHT22;68;48.792;9.164;2023-12-28T03:04:42;6.40;73.80
152;DHT22;68;48.792;9.164;2023-12-28T03:07:08;6.50;74.20
152;DHT22;68;48.792;9.164;2023-12-28T03:09:35;6.40;74.10
152;DHT22;68;48.792;9.164;2023-12-28T03:12:04;6.30;74.80
152;DHT22;68;48.792;9.164;2023-12-28T03:14:32;6.40;74.30
152;DHT22;68;48.792;9.164;2023-12-28T03:16:59;6.40;74.90
152;DHT22;68;48.792;9.164;2023-12-28T03:19:26;6.50;73.50
152;DHT22;68;48.792;9.164;2023-12-28T03:21:52;6.50;73.20
152;DHT22;68;48.792;9.164;2023-12-28T03:24:19;6.70;73.60
152;DHT22;68;48.792;9.164;2023-12-28T03:26:46;6.70;73.10
152;DHT22;68;48.792;9.164;2023-12-28T03:29:12;6.70;74.80
152;DHT22;68;48.792;9.164;2023-12-28T03:31:41;6.60;74.50
152;DHT22;68;48.792;9.164;2023-12-28T03:34:07;6.60;73.70
152;DHT22;68;48.792;9.164;2023-12-28T03:36:35;6.60;73.90
152;DHT22;68;48.792;9.164;2023-12-28T03:39:02;6.80;74.10
152;DHT22;68;48.792;9.164;2023-12-28T03:41:30;6.80;73.70
152;DHT22;68;48.792;9.164;2023-12-28T03:43:57;6.80;75.30
152;DHT22;68;48.792;9.164;2023-12-28T03:46:24;6.60;74.70
152;DHT22;68;48.792;9.164;2023-12-28T03:48:52;6.60;75.00
152;DHT22;68;48.792;9.164;2023-12-28T03:51:19;6.60;73.90
152;DHT22;68;48.792;9.164;2023-12-28T03:53:46;6.60;73.40
152;DHT22;68;48.792;9.164;2023-12-28T03:56:23;6.70;73.10
152;DHT22;68;48.792;9.164;2023-12-28T03:58:50;6.80;72.40
152;DHT22;68;48.792;9.164;2023-12-28T04:01:18;6.90;72.20
152;DHT22;68;48.792;9.164;2023-12-28T04:03:44;7.10;72.40
152;DHT22;68;48.792;9.164;2023-12-28T04:06:13;7.10;71.80
152;DHT22;68;48.792;9.164;2023-12-28T04:08:40;7.10;70.60
152;DHT22;68;48.792;9.164;2023-12-28T04:11:07;7.20;70.30
152;DHT22;68;48.792;9.164;2023-12-28T04:13:34;7.30;70.40
152;DHT22;68;48.792;9.164;2023-12-28T04:16:01;7.30;69.90
152;DHT22;68;48.792;9.164;2023-12-28T04:18:28;7.40;69.70
152;DHT22;68;48.792;9.164;2023-12-28T04:20:55;7.40;70.20
152;DHT22;68;48.792;9.164;2023-12-28T04:23:22;7.40;70.40
152;DHT22;68;48.792;9.164;2023-12-28T04:25:49;7.50;71.60
152;DHT22;68;48.792;9.164;2023-12-28T04:28:16;7.40;70.70
152;DHT22;68;48.792;9.164;2023-12-28T04:30:43;7.40;70.50
152;DHT22;68;48.792;9.164;2023-12-28T04:33:09;7.50;71.60
152;DHT22;68;48.792;9.164;2023-12-28T04:35:36;7.60;70.10
152;DHT22;68;48.792;9.164;2023-12-28T04:38:03;7.50;71.00
152;DHT22;68;48.792;9.164;2023-12-28T04:40:31;7.50;70.50
152;DHT22;68;48.792;9.164;2023-12-28T04:42:59;7.70;70.50
152;DHT22;68;48.792;9.164;2023-12-28T04:45:25;7.70;70.10
152;DHT22;68;48.792;9.164;2023-12-28T04:47:53;7.70;69.30
152;DHT22;68;48.792;9.164;2023-12-28T04:50:19;7.90;69.80
152;DHT22;68;48.792;9.164;2023-12-28T04:52:46;7.90;69.50
152;DHT22;68;48.792;9.164;2023-12-28T04:55:13;7.90;71.80
152;DHT22;68;48.792;9.164;2023-12-28T04:57:42;7.90;69.60
152;DHT22;68;48.792;9.164;2023-12-28T05:00:09;7.90;69.60
152;DHT22;68;48.792;9.164;2023-12-28T05:02:36;7.80;70.40
152;DHT22;68;48.792;9.164;2023-12-28T05:05:03;7.70;71.10
152;DHT22;68;48.792;9.164;2023-12-28T05:07:30;7.60;71.90
152;DHT22;68;48.792;9.164;2023-12-28T05:09:57;7.70;72.60
152;DHT22;68;48.792;9.164;2023-12-28T05:12:23;7.70;71.80
152;DHT22;68;48.792;9.164;2023-12-28T05:14:51;7.80;72.50
152;DHT22;68;48.792;9.164;2023-12-28T05:17:18;7.70;73.00
152;DHT22;68;48.792;9.164;2023-12-28T05:19:45;7.60;72.90
152;DHT22;68;48.792;9.164;2023-12-28T05:22:12;7.50;72.90
152;DHT22;68;48.792;9.164;2023-12-28T05:27:06;7.60;72.40
152;DHT22;68;48.792;9.164;2023-12-28T05:34:28;7.80;72.10
152;DHT22;68;48.792;9.164;2023-12-28T05:36:55;7.90;71.70
152;DHT22;68;48.792;9.164;2023-12-28T05:39:22;8.00;71.70
152;DHT22;68;48.792;9.164;2023-12-28T05:41:48;7.90;72.30
152;DHT22;68;48.792;9.164;2023-12-28T05:44:16;8.00;73.00
152;DHT22;68;48.792;9.164;2023-12-28T05:46:43;8.00;72.20
152;DHT22;68;48.792;9.164;2023-12-28T05:49:11;8.20;72.80
152;DHT22;68;48.792;9.164;2023-12-28T05:51:38;7.90;73.70
152;DHT22;68;48.792;9.164;2023-12-28T05:54:06;8.00;73.60
152;DHT22;68;48.792;9.164;2023-12-28T05:56:33;8.20;72.80
152;DHT22;68;48.792;9.164;2023-12-28T05:59:00;8.30;72.90
152;DHT22;68;48.792;9.164;2023-12-28T06:01:26;8.40;72.70
152;DHT22;68;48.792;9.164;2023-12-28T06:03:53;8.50;72.50
152;DHT22;68;48.792;9.164;2023-12-28T06:06:21;8.40;73.10
152;DHT22;68;48.792;9.164;2023-12-28T06:08:48;8.50;73.30
152;DHT22;68;48.792;9.164;2023-12-28T06:11:15;8.40;73.00
152;DHT22;68;48.792;9.164;2023-12-28T06:13:42;8.50;73.50
152;DHT22;68;48.792;9.164;2023-12-28T06:16:09;8.50;73.50
152;DHT22;68;48.792;9.164;2023-12-28T06:18:36;8.50;73.00
152;DHT22;68;48.792;9.164;2023-12-28T06:23:33;8.70;72.00
152;DHT22;68;48.792;9.164;2023-12-28T06:26:04;8.70;72.90
152;DHT22;68;48.792;9.164;2023-12-28T06:28:31;8.80;72.80
152;DHT22;68;48.792;9.164;2023-12-28T06:30:58;8.80;73.00
152;DHT22;68;48.792;9.164;2023-12-28T06:33:26;8.70;73.30
152;DHT22;68;48.792;9.164;2023-12-28T06:38:23;8.70;73.50
152;DHT22;68;48.792;9.164;2023-12-28T06:40:51;8.70;74.40
152;DHT22;68;48.792;9.164;2023-12-28T06:43:18;8.90;74.20
152;DHT22;68;48.792;9.164;2023-12-28T06:48:12;8.90;73.60
152;DHT22;68;48.792;9.164;2023-12-28T06:50:39;8.90;73.90
152;DHT22;68;48.792;9.164;2023-12-28T06:53:05;9.00;73.60
152;DHT22;68;48.792;9.164;2023-12-28T06:55:32;8.80;75.00
152;DHT22;68;48.792;9.164;2023-12-28T06:58:01;8.80;73.80
152;DHT22;68;48.792;9.164;2023-12-28T07:00:28;8.80;74.50
152;DHT22;68;48.792;9.164;2023-12-28T07:02:55;8.90;74.60
152;DHT22;68;48.792;9.164;2023-12-28T07:05:22;8.90;74.20
152;DHT22;68;48.792;9.164;2023-12-28T07:07:48;8.90;74.90
152;DHT22;68;48.792;9.164;2023-12-28T07:10:15;8.90;74.80
152;DHT22;68;48.792;9.164;2023-12-28T07:12:42;8.90;74.60
152;DHT22;68;48.792;9.164;2023-12-28T07:15:10;8.90;75.00
152;DHT22;68;48.792;9.164;2023-12-28T07:17:39;8.90;76.10
152;DHT22;68;48.792;9.164;2023-12-28T07:20:07;9.00;74.80
152;DHT22;68;48.792;9.164;2023-12-28T07:22:36;9.00;75.30
152;DHT22;68;48.792;9.164;2023-12-28T07:25:04;9.10;75.10
152;DHT22;68;48.792;9.164;2023-12-28T07:27:31;9.10;75.10
152;DHT22;68;48.792;9.164;2023-12-28T07:29:58;9.10;75.40
152;DHT22;68;48.792;9.164;2023-12-28T07:32:26;9.10;75.50
152;DHT22;68;48.792;9.164;2023-12-28T07:34:53;9.10;75.70
152;DHT22;68;48.792;9.164;2023-12-28T07:37:20;9.20;75.90
152;DHT22;68;48.792;9.164;2023-12-28T07:39:47;9.10;76.60
152;DHT22;68;48.792;9.164;2023-12-28T07:42:14;9.20;77.50
152;DHT22;68;48.792;9.164;2023-12-28T07:44:40;9.20;76.60
152;DHT22;68;48.792;9.164;2023-12-28T07:47:07;9.20;76.90
152;DHT22;68;48.792;9.164;2023-12-28T07:49:36;9.20;77.00
152;DHT22;68;48.792;9.164;2023-12-28T07:54:30;9.30;77.20
152;DHT22;68;48.792;9.164;2023-12-28T07:56:57;9.20;79.30
152;DHT22;68;48.792;9.164;2023-12-28T07:59:23;9.20;77.10
152;DHT22;68;48.792;9.164;2023-12-28T08:01:50;9.30;77.10
152;DHT22;68;48.792;9.164;2023-12-28T08:04:17;9.30;77.30
152;DHT22;68;48.792;9.164;2023-12-28T08:06:45;9.30;77.30
152;DHT22;68;48.792;9.164;2023-12-28T08:09:12;9.30;78.10
152;DHT22;68;48.792;9.164;2023-12-28T08:11:39;9.20;78.70
152;DHT22;68;48.792;9.164;2023-12-28T08:14:05;9.30;78.60
152;DHT22;68;48.792;9.164;2023-12-28T08:16:32;9.30;78.30
152;DHT22;68;48.792;9.164;2023-12-28T08:19:00;9.40;78.70
152;DHT22;68;48.792;9.164;2023-12-28T08:21:27;9.40;78.90
152;DHT22;68;48.792;9.164;2023-12-28T08:23:55;9.40;79.00
152;DHT22;68;48.792;9.164;2023-12-28T08:26:22;9.30;79.80
152;DHT22;68;48.792;9.164;2023-12-28T08:28:48;9.30;80.20
152;DHT22;68;48.792;9.164;2023-12-28T08:31:15;9.50;80.70
152;DHT22;68;48.792;9.164;2023-12-28T08:33:42;9.70;80.10
152;DHT22;68;48.792;9.164;2023-12-28T08:36:09;9.80;79.90
152;DHT22;68;48.792;9.164;2023-12-28T08:38:36;9.70;79.40
152;DHT22;68;48.792;9.164;2023-12-28T08:41:05;9.60;80.30
152;DHT22;68;48.792;9.164;2023-12-28T08:43:34;9.30;80.70
152;DHT22;68;48.792;9.164;2023-12-28T08:46:01;9.20;81.50
152;DHT22;68;48.792;9.164;2023-12-28T08:48:28;9.40;81.50
152;DHT22;68;48.792;9.164;2023-12-28T08:50:55;9.60;81.60
152;DHT22;68;48.792;9.164;2023-12-28T08:53:22;9.60;81.50
152;DHT22;68;48.792;9.164;2023-12-28T08:58:17;9.40;82.60
152;DHT22;68;48.792;9.164;2023-12-28T09:00:44;9.50;82.20
152;DHT22;68;48.792;9.164;2023-12-28T09:03:12;9.30;82.00
152;DHT22;68;48.792;9.164;2023-12-28T09:05:39;9.30;82.30
152;DHT22;68;48.792;9.164;2023-12-28T09:08:06;9.30;82.20
152;DHT22;68;48.792;9.164;2023-12-28T09:10:33;9.40;82.20
152;DHT22;68;48.792;9.164;2023-12-28T09:13:00;9.30;82.70
152;DHT22;68;48.792;9.164;2023-12-28T09:15:28;9.30;82.70
152;DHT22;68;48.792;9.164;2023-12-28T09:17:56;9.40;83.00
152;DHT22;68;48.792;9.164;2023-12-28T09:20:22;9.40;84.30
152;DHT22;68;48.792;9.164;2023-12-28T09:22:49;9.50;84.10
152;DHT22;68;48.792;9.164;2023-12-28T09:25:21;9.60;85.60
152;DHT22;68;48.792;9.164;2023-12-28T09:27:48;9.50;86.60
152;DHT22;68;48.792;9.164;2023-12-28T09:30:15;9.50;86.30
152;DHT22;68;48.792;9.164;2023-12-28T09:32:43;9.60;86.00
152;DHT22;68;48.792;9.164;2023-12-28T09:35:10;9.90;86.30
152;DHT22;68;48.792;9.164;2023-12-28T09:37:37;10.20;85.40
152;DHT22;68;48.792;9.164;2023-12-28T09:40:04;10.30;85.80
152;DHT22;68;48.792;9.164;2023-12-28T09:42:43;10.50;84.80
152;DHT22;68;48.792;9.164;2023-12-28T09:45:13;10.40;84.70
152;DHT22;68;48.792;9.164;2023-12-28T09:47:40;10.70;83.30
152;DHT22;68;48.792;9.164;2023-12-28T09:50:11;10.60;84.10
152;DHT22;68;48.792;9.164;2023-12-28T09:52:39;10.60;84.70
152;DHT22;68;48.792;9.164;2023-12-28T09:55:06;10.40;85.20
152;DHT22;68;48.792;9.164;2023-12-28T09:57:34;10.40;85.80
152;DHT22;68;48.792;9.164;2023-12-28T10:00:01;10.60;85.50
152;DHT22;68;48.792;9.164;2023-12-28T10:02:28;10.70;84.50
152;DHT22;68;48.792;9.164;2023-12-28T10:04:56;11.00;82.80
152;DHT22;68;48.792;9.164;2023-12-28T10:07:25;11.10;81.60
152;DHT22;68;48.792;9.164;2023-12-28T10:09:52;11.10;81.10
152;DHT22;68;48.792;9.164;2023-12-28T10:12:19;11.10;81.20
152;DHT22;68;48.792;9.164;2023-12-28T10:14:46;11.00;81.80
152;DHT22;68;48.792;9.164;2023-12-28T10:17:12;11.10;81.30
152;DHT22;68;48.792;9.164;2023-12-28T10:19:39;10.90;81.80
152;DHT22;68;48.792;9.164;2023-12-28T10:22:06;10.80;82.20
152;DHT22;68;48.792;9.164;2023-12-28T10:24:34;10.90;81.80
152;DHT22;68;48.792;9.164;2023-12-28T10:27:07;10.90;81.90
152;DHT22;68;48.792;9.164;2023-12-28T10:29:34;11.00;81.40
152;DHT22;68;48.792;9.164;2023-12-28T10:32:01;11.20;81.10
152;DHT22;68;48.792;9.164;2023-12-28T10:34:28;11.10;81.50
152;DHT22;68;48.792;9.164;2023-12-28T10:36:55;10.90;83.10
152;DHT22;68;48.792;9.164;2023-12-28T10:39:25;11.10;82.00
152;DHT22;68;48.792;9.164;2023-12-28T10:41:55;11.10;82.30
152;DHT22;68;48.792;9.164;2023-12-28T10:44:28;11.00;82.00
152;DHT22;68;48.792;9.164;2023-12-28T10:47:01;11.20;81.40
152;DHT22;68;48.792;9.164;2023-12-28T10:49:30;11.20;82.10
152;DHT22;68;48.792;9.164;2023-12-28T10:52:00;11.30;81.90
152;DHT22;68;48.792;9.164;2023-12-28T10:54:35;11.20;82.50
152;DHT22;68;48.792;9.164;2023-12-28T10:57:09;11.30;82.10
152;DHT22;68;48.792;9.164;2023-12-28T10:59:44;11.20;82.80
152;DHT22;68;48.792;9.164;2023-12-28T11:02:15;11.20;81.80
152;DHT22;68;48.792;9.164;2023-12-28T11:04:49;11.40;82.20
152;DHT22;68;48.792;9.164;2023-12-28T11:07:18;11.40;83.30
152;DHT22;68;48.792;9.164;2023-12-28T11:09:45;11.50;82.40
152;DHT22;68;48.792;9.164;2023-12-28T11:12:16;11.70;81.20
152;DHT22;68;48.792;9.164;2023-12-28T11:14:45;11.70;81.70
152;DHT22;68;48.792;9.164;2023-12-28T11:17:12;11.40;82.70
152;DHT22;68;48.792;9.164;2023-12-28T11:19:41;11.60;81.90
152;DHT22;68;48.792;9.164;2023-12-28T11:22:09;11.30;85.00
152;DHT22;68;48.792;9.164;2023-12-28T11:24:36;11.40;83.80
152;DHT22;68;48.792;9.164;2023-12-28T11:27:03;11.30;84.80
152;DHT22;68;48.792;9.164;2023-12-28T11:29:32;11.50;84.30
152;DHT22;68;48.792;9.164;2023-12-28T11:32:00;11.40;84.60
152;DHT22;68;48.792;9.164;2023-12-28T11:34:28;11.40;85.20
152;DHT22;68;48.792;9.164;2023-12-28T11:36:56;11.60;84.80
152;DHT22;68;48.792;9.164;2023-12-28T11:39:29;11.50;86.30
152;DHT22;68;48.792;9.164;2023-12-28T11:42:00;11.30;86.60
152;DHT22;68;48.792;9.164;2023-12-28T11:44:28;11.50;85.80
152;DHT22;68;48.792;9.164;2023-12-28T11:46:57;11.50;86.00
152;DHT22;68;48.792;9.164;2023-12-28T11:49:27;11.60;85.80
152;DHT22;68;48.792;9.164;2023-12-28T11:51:56;11.70;85.80
152;DHT22;68;48.792;9.164;2023-12-28T11:54:24;11.70;85.90
152;DHT22;68;48.792;9.164;2023-12-28T11:56:52;11.80;85.30
152;DHT22;68;48.792;9.164;2023-12-28T11:59:18;11.70;84.90
152;DHT22;68;48.792;9.164;2023-12-28T12:01:49;11.40;87.30
152;DHT22;68;48.792;9.164;2023-12-28T12:04:17;11.50;86.70
152;DHT22;68;48.792;9.164;2023-12-28T12:06:44;11.80;85.40
152;DHT22;68;48.792;9.164;2023-12-28T12:09:12;11.80;86.00
152;DHT22;68;48.792;9.164;2023-12-28T12:11:39;11.90;84.20
152;DHT22;68;48.792;9.164;2023-12-28T12:14:08;11.70;85.40
152;DHT22;68;48.792;9.164;2023-12-28T12:16:35;11.70;85.60
152;DHT22;68;48.792;9.164;2023-12-28T12:19:03;11.70;85.80
152;DHT22;68;48.792;9.164;2023-12-28T12:21:31;11.60;87.70
152;DHT22;68;48.792;9.164;2023-12-28T12:23:58;11.40;86.90
152;DHT22;68;48.792;9.164;2023-12-28T12:26:26;11.60;87.30
152;DHT22;68;48.792;9.164;2023-12-28T12:28:53;11.30;88.10
152;DHT22;68;48.792;9.164;2023-12-28T12:31:20;11.40;89.20
152;DHT22;68;48.792;9.164;2023-12-28T12:33:47;11.60;88.30
152;DHT22;68;48.792;9.164;2023-12-28T12:36:15;11.60;88.40
152;DHT22;68;48.792;9.164;2023-12-28T12:38:44;11.40;90.30
152;DHT22;68;48.792;9.164;2023-12-28T12:41:11;11.40;89.20
152;DHT22;68;48.792;9.164;2023-12-28T12:43:38;11.70;87.40
152;DHT22;68;48.792;9.164;2023-12-28T12:46:06;11.60;87.50
152;DHT22;68;48.792;9.164;2023-12-28T12:48:33;11.60;88.00
152;DHT22;68;48.792;9.164;2023-12-28T12:51:02;11.70;88.80
152;DHT22;68;48.792;9.164;2023-12-28T12:53:32;11.70;88.40
152;DHT22;68;48.792;9.164;2023-12-28T12:56:02;11.50;89.70
152;DHT22;68;48.792;9.164;2023-12-28T12:58:29;11.50;89.20
152;DHT22;68;48.792;9.164;2023-12-28T13:00:57;11.70;89.00
152;DHT22;68;48.792;9.164;2023-12-28T13:03:27;11.90;88.40
152;DHT22;68;48.792;9.164;2023-12-28T13:05:54;11.70;89.10
152;DHT22;68;48.792;9.164;2023-12-28T13:08:21;11.60;88.80
152;DHT22;68;48.792;9.164;2023-12-28T13:10:48;11.30;89.70
152;DHT22;68;48.792;9.164;2023-12-28T13:13:17;11.40;91.10
152;DHT22;68;48.792;9.164;2023-12-28T13:15:44;11.60;91.00
152;DHT22;68;48.792;9.164;2023-12-28T13:18:11;11.80;88.90
152;DHT22;68;48.792;9.164;2023-12-28T13:20:38;12.00;87.40
152;DHT22;68;48.792;9.164;2023-12-28T13:23:04;11.90;88.40
152;DHT22;68;48.792;9.164;2023-12-28T13:25:31;11.80;88.50
152;DHT22;68;48.792;9.164;2023-12-28T13:27:58;11.90;87.70
152;DHT22;68;48.792;9.164;2023-12-28T13:30:26;11.70;88.40
152;DHT22;68;48.792;9.164;2023-12-28T13:32:54;11.70;88.80
152;DHT22;68;48.792;9.164;2023-12-28T13:35:21;11.60;89.10
152;DHT22;68;48.792;9.164;2023-12-28T13:37:48;11.60;90.70
152;DHT22;68;48.792;9.164;2023-12-28T13:40:15;11.70;89.80
152;DHT22;68;48.792;9.164;2023-12-28T13:42:42;11.90;88.20
152;DHT22;68;48.792;9.164;2023-12-28T13:45:09;12.00;88.50
152;DHT22;68;48.792;9.164;2023-12-28T13:47:37;11.80;89.50
152;DHT22;68;48.792;9.164;2023-12-28T13:50:05;11.60;88.90
152;DHT22;68;48.792;9.164;2023-12-28T13:52:32;11.60;90.90
152;DHT22;68;48.792;9.164;2023-12-28T13:54:59;11.60;91.60
152;DHT22;68;48.792;9.164;2023-12-28T13:57:26;11.60;90.30
152;DHT22;68;48.792;9.164;2023-12-28T13:59:52;11.80;88.50
152;DHT22;68;48.792;9.164;2023-12-28T14:02:21;12.00;89.20
152;DHT22;68;48.792;9.164;2023-12-28T14:04:49;12.20;88.30
152;DHT22;68;48.792;9.164;2023-12-28T14:07:16;11.90;88.20
152;DHT22;68;48.792;9.164;2023-12-28T14:09:43;11.70;91.50
152;DHT22;68;48.792;9.164;2023-12-28T14:12:10;11.60;91.50
152;DHT22;68;48.792;9.164;2023-12-28T14:14:36;11.60;91.90
152;DHT22;68;48.792;9.164;2023-12-28T14:17:03;11.40;92.50
152;DHT22;68;48.792;9.164;2023-12-28T14:19:30;11.20;93.70
152;DHT22;68;48.792;9.164;2023-12-28T14:21:59;11.30;93.90
152;DHT22;68;48.792;9.164;2023-12-28T14:24:26;11.50;93.20
152;DHT22;68;48.792;9.164;2023-12-28T14:26:54;11.70;92.20
152;DHT22;68;48.792;9.164;2023-12-28T14:29:21;11.80;92.80
152;DHT22;68;48.792;9.164;2023-12-28T14:31:48;11.80;92.40
152;DHT22;68;48.792;9.164;2023-12-28T14:34:16;11.90;92.90
152;DHT22;68;48.792;9.164;2023-12-28T14:36:44;11.50;94.30
152;DHT22;68;48.792;9.164;2023-12-28T14:39:16;11.40;95.10
152;DHT22;68;48.792;9.164;2023-12-28T14:41:45;11.50;94.90
152;DHT22;68;48.792;9.164;2023-12-28T14:44:12;11.30;95.20
152;DHT22;68;48.792;9.164;2023-12-28T14:46:39;11.20;95.20
152;DHT22;68;48.792;9.164;2023-12-28T14:49:06;11.00;95.40
152;DHT22;68;48.792;9.164;2023-12-28T14:51:33;10.70;95.60
152;DHT22;68;48.792;9.164;2023-12-28T14:54:00;10.60;95.60
152;DHT22;68;48.792;9.164;2023-12-28T14:56:28;10.50;95.20
152;DHT22;68;48.792;9.164;2023-12-28T14:58:55;10.80;95.90
152;DHT22;68;48.792;9.164;2023-12-28T15:01:21;11.10;95.90
152;DHT22;68;48.792;9.164;2023-12-28T15:03:48;11.50;94.80
152;DHT22;68;48.792;9.164;2023-12-28T15:06:15;11.70;94.00
152;DHT22;68;48.792;9.164;2023-12-28T15:08:42;11.90;92.90
152;DHT22;68;48.792;9.164;2023-12-28T15:11:09;11.80;92.60
152;DHT22;68;48.792;9.164;2023-12-28T15:13:38;12.00;91.20
152;DHT22;68;48.792;9.164;2023-12-28T15:16:06;11.90;91.40
152;DHT22;68;48.792;9.164;2023-12-28T15:18:34;11.70;91.30
152;DHT22;68;48.792;9.164;2023-12-28T15:21:01;11.70;91.40
152;DHT22;68;48.792;9.164;2023-12-28T15:23:29;11.80;91.10
152;DHT22;68;48.792;9.164;2023-12-28T15:25:56;11.30;92.60
152;DHT22;68;48.792;9.164;2023-12-28T15:28:23;11.00;93.00
152;DHT22;68;48.792;9.164;2023-12-28T15:30:51;10.90;93.40
152;DHT22;68;48.792;9.164;2023-12-28T15:33:18;11.00;93.40
152;DHT22;68;48.792;9.164;2023-12-28T15:35:44;11.10;92.50
152;DHT22;68;48.792;9.164;2023-12-28T15:38:11;11.10;92.10
152;DHT22;68;48.792;9.164;2023-12-28T15:40:41;11.00;92.20
152;DHT22;68;48.792;9.164;2023-12-28T15:43:08;11.00;92.10
152;DHT22;68;48.792;9.164;2023-12-28T15:45:36;11.10;92.30
152;DHT22;68;48.792;9.164;2023-12-28T15:48:05;11.10;91.60
152;DHT22;68;48.792;9.164;2023-12-28T15:50:32;11.10;91.50
152;DHT22;68;48.792;9.164;2023-12-28T15:52:58;11.20;91.50
152;DHT22;68;48.792;9.164;2023-12-28T15:55:25;11.20;91.40
152;DHT22;68;48.792;9.164;2023-12-28T15:57:52;11.10;91.10
152;DHT22;68;48.792;9.164;2023-12-28T16:00:19;11.10;91.80
152;DHT22;68;48.792;9.164;2023-12-28T16:02:46;11.00;91.50
152;DHT22;68;48.792;9.164;2023-12-28T16:05:14;11.00;92.00
152;DHT22;68;48.792;9.164;2023-12-28T16:07:41;11.00;91.70
152;DHT22;68;48.792;9.164;2023-12-28T16:10:08;10.90;92.40
152;DHT22;68;48.792;9.164;2023-12-28T16:12:35;10.90;92.50
152;DHT22;68;48.792;9.164;2023-12-28T16:15:03;10.90;91.80
152;DHT22;68;48.792;9.164;2023-12-28T16:17:31;10.90;92.20
152;DHT22;68;48.792;9.164;2023-12-28T16:19:58;11.00;91.20
152;DHT22;68;48.792;9.164;2023-12-28T16:22:26;10.90;91.70
152;DHT22;68;48.792;9.164;2023-12-28T16:24:53;10.80;91.90
152;DHT22;68;48.792;9.164;2023-12-28T16:27:20;10.80;91.90
152;DHT22;68;48.792;9.164;2023-12-28T16:29:47;10.60;92.90
152;DHT22;68;48.792;9.164;2023-12-28T16:32:14;10.70;92.50
152;DHT22;68;48.792;9.164;2023-12-28T16:34:40;10.80;92.10
152;DHT22;68;48.792;9.164;2023-12-28T16:37:07;10.90;91.70
152;DHT22;68;48.792;9.164;2023-12-28T16:39:35;11.10;91.10
152;DHT22;68;48.792;9.164;2023-12-28T16:42:02;11.20;90.60
152;DHT22;68;48.792;9.164;2023-12-28T16:44:29;11.30;90.20
152;DHT22;68;48.792;9.164;2023-12-28T16:46:56;11.30;90.30
152;DHT22;68;48.792;9.164;2023-12-28T16:49:23;10.80;92.00
152;DHT22;68;48.792;9.164;2023-12-28T16:51:50;10.80;92.10
152;DHT22;68;48.792;9.164;2023-12-28T16:54:17;10.80;92.30
152;DHT22;68;48.792;9.164;2023-12-28T16:56:45;10.80;92.50
152;DHT22;68;48.792;9.164;2023-12-28T16:59:12;10.90;92.10
152;DHT22;68;48.792;9.164;2023-12-28T17:01:41;10.80;92.50
152;DHT22;68;48.792;9.164;2023-12-28T17:04:07;10.70;92.60
152;DHT22;68;48.792;9.164;2023-12-28T17:06:34;10.50;92.80
152;DHT22;68;48.792;9.164;2023-12-28T17:09:01;10.50;92.60
152;DHT22;68;48.792;9.164;2023-12-28T17:11:34;10.50;92.30
152;DHT22;68;48.792;9.164;2023-12-28T17:14:02;10.40;93.00
152;DHT22;68;48.792;9.164;2023-12-28T17:16:30;10.50;92.70
152;DHT22;68;48.792;9.164;2023-12-28T17:18:59;10.50;93.10
152;DHT22;68;48.792;9.164;2023-12-28T17:21:30;10.60;92.70